createdAt,value
2018-08-06T00:00:28.775Z,19.22
2018-08-06T00:02:57.175Z,19.21
2018-08-06T00:05:25.318Z,19.16
2018-08-06T00:07:53.765Z,19.09
2018-08-06T00:10:23.676Z,19.02
2018-08-06T00:12:52.060Z,18.93
2018-08-06T00:15:20.395Z,18.83
2018-08-06T00:17:48.505Z,18.73
2018-08-06T00:20:17.268Z,18.63
2018-08-06T00:22:45.687Z,18.56
2018-08-06T00:25:16.015Z,18.50
2018-08-06T00:27:44.528Z,18.47
2018-08-06T00:30:16.650Z,18.42
2018-08-06T00:32:45.763Z,18.40
2018-08-06T00:35:15.859Z,18.40
2018-08-06T00:37:44.449Z,18.41
2018-08-06T00:40:16.001Z,18.38
2018-08-06T00:42:45.031Z,18.35
2018-08-06T00:45:15.427Z,18.30
2018-08-06T00:47:43.902Z,18.23
2018-08-06T00:50:13.211Z,18.17
2018-08-06T00:52:41.725Z,18.12
2018-08-06T00:55:13.738Z,18.08
2018-08-06T00:57:42.450Z,18.04
2018-08-06T01:00:15.798Z,18.02
2018-08-06T01:02:44.475Z,17.98
2018-08-06T01:05:13.735Z,17.93
2018-08-06T01:07:42.553Z,17.85
2018-08-06T01:10:12.438Z,17.77
2018-08-06T01:12:41.177Z,17.74
2018-08-06T01:15:11.085Z,17.71
2018-08-06T01:17:39.463Z,17.66
2018-08-06T01:20:09.755Z,17.62
2018-08-06T01:22:38.488Z,17.58
2018-08-06T01:25:06.612Z,17.55
2018-08-06T01:27:35.695Z,17.52
2018-08-06T01:30:04.128Z,17.51
2018-08-06T01:32:32.901Z,17.47
2018-08-06T01:35:01.306Z,17.42
2018-08-06T01:37:29.935Z,17.40
2018-08-06T01:39:58.787Z,17.38
2018-08-06T01:42:27.477Z,17.33
2018-08-06T01:44:55.869Z,17.32
2018-08-06T01:47:24.819Z,17.30
2018-08-06T01:49:53.468Z,17.27
2018-08-06T01:52:21.782Z,17.23
2018-08-06T01:54:50.531Z,17.19
2018-08-06T01:57:18.953Z,17.16
2018-08-06T01:59:47.712Z,17.13
2018-08-06T02:02:15.815Z,17.10
2018-08-06T02:04:44.493Z,17.08
2018-08-06T02:07:12.831Z,17.05
2018-08-06T02:09:40.945Z,17.02
2018-08-06T02:12:09.372Z,17.01
2018-08-06T02:14:37.801Z,17.01
2018-08-06T02:17:06.197Z,17.00
2018-08-06T02:19:34.616Z,16.98
2018-08-06T02:22:02.744Z,16.93
2018-08-06T02:24:30.836Z,16.90
2018-08-06T02:26:59.228Z,16.87
2018-08-06T02:29:27.608Z,16.87
2018-08-06T02:31:55.724Z,16.83
2018-08-06T02:34:24.708Z,16.80
2018-08-06T02:36:53.069Z,16.78
2018-08-06T02:39:21.620Z,16.74
2018-08-06T02:41:50.060Z,16.64
2018-08-06T02:44:18.988Z,16.57
2018-08-06T02:46:47.365Z,16.51
2018-08-06T02:49:15.972Z,16.48
2018-08-06T02:51:44.622Z,16.46
2018-08-06T02:54:12.956Z,16.43
2018-08-06T02:56:41.656Z,16.42
2018-08-06T02:59:10.025Z,16.40
2018-08-06T03:01:38.392Z,16.39
2018-08-06T03:04:06.846Z,16.36
2018-08-06T03:06:34.949Z,16.34
2018-08-06T03:09:05.292Z,16.31
2018-08-06T03:11:34.027Z,16.28
2018-08-06T03:14:02.740Z,16.19
2018-08-06T03:16:31.560Z,16.15
2018-08-06T03:18:59.896Z,16.12
2018-08-06T03:21:29.464Z,16.10
2018-08-06T03:23:57.845Z,16.08
2018-08-06T03:26:26.195Z,16.06
2018-08-06T03:28:54.833Z,16.06
2018-08-06T03:31:23.322Z,16.05
2018-08-06T03:33:52.009Z,16.04
2018-08-06T03:36:20.366Z,16.03
2018-08-06T03:38:49.130Z,16.05
2018-08-06T03:41:18.428Z,16.06
2018-08-06T03:43:47.065Z,16.04
2018-08-06T03:46:15.940Z,15.97
2018-08-06T03:48:44.045Z,15.91
2018-08-06T03:51:12.471Z,15.85
2018-08-06T03:53:40.867Z,15.82
2018-08-06T03:56:09.326Z,15.82
2018-08-06T03:58:37.856Z,15.81
2018-08-06T04:01:06.288Z,15.79
2018-08-06T04:03:34.649Z,15.76
2018-08-06T04:06:02.760Z,15.73
2018-08-06T04:08:31.028Z,15.70
2018-08-06T04:10:59.460Z,15.64
2018-08-06T04:13:28.472Z,15.57
2018-08-06T04:15:56.793Z,15.51
2018-08-06T04:18:25.769Z,15.49
2018-08-06T04:20:53.892Z,15.49
2018-08-06T04:23:22.532Z,15.47
2018-08-06T04:25:51.019Z,15.48
2018-08-06T04:28:19.772Z,15.52
2018-08-06T04:30:48.225Z,15.57
2018-08-06T04:33:17.000Z,15.62
2018-08-06T04:35:45.122Z,15.67
2018-08-06T04:38:14.105Z,15.70
2018-08-06T04:40:42.544Z,15.70
2018-08-06T04:43:12.197Z,15.71
2018-08-06T04:45:40.827Z,15.73
2018-08-06T04:48:09.188Z,15.79
2018-08-06T04:50:37.643Z,15.85
2018-08-06T04:53:05.950Z,15.94
2018-08-06T04:55:34.584Z,15.97
2018-08-06T04:58:02.820Z,15.95
2018-08-06T05:00:31.024Z,15.94
2018-08-06T05:02:59.719Z,15.98
2018-08-06T05:05:28.018Z,16.03
2018-08-06T05:07:56.393Z,16.08
2018-08-06T05:10:24.797Z,16.08
2018-08-06T05:12:52.909Z,16.09
2018-08-06T05:15:21.451Z,16.15
2018-08-06T05:17:49.851Z,16.24
2018-08-06T05:20:18.109Z,16.38
2018-08-06T05:22:46.279Z,16.52
2018-08-06T05:25:14.624Z,16.67
2018-08-06T05:27:42.839Z,16.78
2018-08-06T05:30:12.731Z,16.87
2018-08-06T05:32:40.922Z,16.99
2018-08-06T05:35:09.043Z,17.14
2018-08-06T05:37:37.605Z,17.32
2018-08-06T05:40:06.889Z,17.45
2018-08-06T05:42:35.479Z,17.55
2018-08-06T05:45:05.317Z,17.60
2018-08-06T05:47:33.448Z,17.71
2018-08-06T05:50:02.169Z,17.87
2018-08-06T05:52:30.309Z,17.99
2018-08-06T05:54:59.028Z,18.01
2018-08-06T05:57:27.749Z,18.07
2018-08-06T05:59:55.969Z,18.14
2018-08-06T06:02:24.120Z,18.26
2018-08-06T06:04:52.585Z,18.38
2018-08-06T06:07:21.241Z,18.54
2018-08-06T06:09:49.616Z,18.78
2018-08-06T06:12:18.153Z,19.00
2018-08-06T06:14:46.602Z,19.22
2018-08-06T06:17:16.641Z,19.45
2018-08-06T06:19:45.032Z,19.69
2018-08-06T06:22:13.479Z,19.98
2018-08-06T06:24:41.904Z,20.17
2018-08-06T06:27:10.069Z,20.38
2018-08-06T06:29:38.196Z,20.59
2018-08-06T06:32:06.324Z,20.69
2018-08-06T06:34:34.801Z,20.80
2018-08-06T06:37:03.085Z,20.92
2018-08-06T06:39:31.397Z,21.09
2018-08-06T06:41:59.502Z,21.30
2018-08-06T06:44:28.604Z,21.56
2018-08-06T06:46:57.380Z,21.76
2018-08-06T06:49:25.797Z,21.94
2018-08-06T06:51:54.562Z,22.08
2018-08-06T06:54:23.526Z,22.18
2018-08-06T06:56:52.073Z,22.26
2018-08-06T06:59:20.575Z,22.39
2018-08-06T07:01:48.710Z,22.53
2018-08-06T07:04:17.358Z,22.67
2018-08-06T07:06:46.324Z,22.84
2018-08-06T07:09:14.640Z,22.96
2018-08-06T07:11:43.349Z,23.14
2018-08-06T07:14:11.436Z,23.41
2018-08-06T07:16:40.093Z,23.59
2018-08-06T07:19:08.580Z,23.69
2018-08-06T07:21:37.216Z,23.80
2018-08-06T07:24:05.687Z,23.87
2018-08-06T07:26:34.747Z,23.94
2018-08-06T07:29:03.550Z,24.08
2018-08-06T07:31:32.372Z,24.33
2018-08-06T07:34:00.732Z,24.65
2018-08-06T07:36:29.306Z,24.86
2018-08-06T07:38:57.748Z,25.07
2018-08-06T07:41:26.427Z,25.21
2018-08-06T07:43:54.821Z,25.44
2018-08-06T07:46:23.480Z,25.68
2018-08-06T07:48:51.591Z,25.78
2018-08-06T07:51:20.284Z,25.83
2018-08-06T07:53:48.387Z,25.95
2018-08-06T07:56:17.017Z,26.13
2018-08-06T07:58:45.759Z,26.25
2018-08-06T08:01:14.445Z,26.29
2018-08-06T08:03:42.901Z,26.30
2018-08-06T08:06:11.482Z,26.36
2018-08-06T08:08:39.600Z,26.54
2018-08-06T08:11:07.961Z,26.68
2018-08-06T08:13:36.606Z,26.84
2018-08-06T08:16:05.173Z,27.01
2018-08-06T08:18:33.905Z,27.19
2018-08-06T08:21:02.988Z,27.30
2018-08-06T08:23:31.577Z,27.35
2018-08-06T08:25:59.929Z,27.38
2018-08-06T08:28:28.320Z,27.51
2018-08-06T08:30:56.776Z,27.61
2018-08-06T08:33:25.442Z,27.65
2018-08-06T08:35:53.757Z,27.72
2018-08-06T08:38:22.101Z,27.79
2018-08-06T08:40:57.731Z,27.89
2018-08-06T08:43:26.128Z,28.04
2018-08-06T08:45:54.917Z,28.09
2018-08-06T08:48:23.692Z,28.12
2018-08-06T08:50:51.948Z,28.19
2018-08-06T08:53:20.346Z,28.34
2018-08-06T08:55:49.352Z,28.39
2018-08-06T08:58:17.736Z,28.57
2018-08-06T09:00:45.843Z,28.76
2018-08-06T09:03:14.205Z,28.79
2018-08-06T09:05:42.468Z,28.81
2018-08-06T09:08:10.905Z,28.78
2018-08-06T09:10:40.069Z,28.86
2018-08-06T09:13:08.803Z,29.04
2018-08-06T09:15:38.048Z,29.27
2018-08-06T09:18:06.429Z,29.52
2018-08-06T09:20:34.573Z,29.67
2018-08-06T09:23:02.668Z,29.61
2018-08-06T09:25:31.117Z,29.50
2018-08-06T09:27:59.755Z,29.43
2018-08-06T09:30:28.561Z,29.45
2018-08-06T09:32:57.643Z,29.46
2018-08-06T09:35:25.969Z,29.44
2018-08-06T09:37:54.200Z,29.47
2018-08-06T09:40:23.637Z,29.65
2018-08-06T09:42:52.307Z,29.89
2018-08-06T09:45:21.905Z,30.00
2018-08-06T09:47:51.180Z,30.08
2018-08-06T09:50:20.313Z,30.36
2018-08-06T09:52:49.872Z,30.75
2018-08-06T09:55:21.688Z,30.92
2018-08-06T09:57:50.320Z,30.92
2018-08-06T10:00:25.277Z,30.67
2018-08-06T10:03:00.918Z,30.46
2018-08-06T10:05:29.426Z,30.38
2018-08-06T10:07:58.048Z,30.51
2018-08-06T10:10:37.839Z,30.77
2018-08-06T10:13:06.065Z,30.99
2018-08-06T10:15:34.508Z,31.01
2018-08-06T10:18:04.068Z,31.06
2018-08-06T10:20:32.474Z,31.12
2018-08-06T10:23:01.097Z,31.15
2018-08-06T10:25:29.861Z,31.37
2018-08-06T10:27:57.980Z,31.63
2018-08-06T10:30:26.809Z,31.71
2018-08-06T10:35:48.344Z,31.79
2018-08-06T10:38:17.295Z,31.53
2018-08-06T10:40:45.428Z,31.41
2018-08-06T10:43:13.920Z,31.42
2018-08-06T10:45:42.576Z,31.58
2018-08-06T10:48:11.493Z,31.81
2018-08-06T10:53:33.996Z,32.13
2018-08-06T10:56:02.163Z,32.23
2018-08-06T10:58:30.445Z,32.41
2018-08-06T11:00:58.587Z,32.46
2018-08-06T11:03:27.024Z,32.43
2018-08-06T11:05:55.713Z,32.36
2018-08-06T11:08:24.136Z,32.38
2018-08-06T11:13:45.864Z,32.42
2018-08-06T11:16:14.601Z,32.43
2018-08-06T11:18:43.273Z,32.40
2018-08-06T11:21:11.743Z,32.46
2018-08-06T11:23:39.993Z,32.63
2018-08-06T11:26:08.637Z,32.68
2018-08-06T11:28:37.196Z,32.84
2018-08-06T11:31:05.676Z,33.07
2018-08-06T11:33:34.345Z,33.03
2018-08-06T11:36:02.448Z,33.18
2018-08-06T11:38:30.560Z,33.35
2018-08-06T11:40:58.690Z,33.51
2018-08-06T11:43:27.124Z,33.58
2018-08-06T11:45:55.888Z,33.38
2018-08-06T11:48:24.731Z,33.34
2018-08-06T11:50:53.208Z,33.41
2018-08-06T11:53:21.647Z,33.50
2018-08-06T11:55:50.301Z,33.64
2018-08-06T11:58:18.761Z,33.90
2018-08-06T12:00:59.088Z,34.29
2018-08-06T12:03:28.078Z,34.59
2018-08-06T12:05:56.540Z,34.57
2018-08-06T12:08:24.908Z,34.70
2018-08-06T12:10:53.548Z,34.69
2018-08-06T12:13:22.061Z,34.60
2018-08-06T12:15:50.169Z,34.50
2018-08-06T12:18:18.380Z,34.24
2018-08-06T12:20:46.791Z,34.15
2018-08-06T12:23:15.148Z,34.15
2018-08-06T12:25:43.582Z,34.23
2018-08-06T12:28:11.955Z,34.37
2018-08-06T12:30:40.820Z,34.64
2018-08-06T12:33:09.716Z,34.75
2018-08-06T12:35:38.472Z,34.68
2018-08-06T12:38:06.864Z,34.67
2018-08-06T12:40:41.439Z,34.71
2018-08-06T12:43:09.779Z,34.86
2018-08-06T12:45:38.748Z,34.98
2018-08-06T12:48:07.573Z,35.03
2018-08-06T12:50:35.992Z,35.08
2018-08-06T12:53:04.641Z,34.91
2018-08-06T12:55:33.072Z,34.95
2018-08-06T12:58:01.526Z,35.22
2018-08-06T13:00:29.965Z,35.29
2018-08-06T13:02:58.213Z,35.34
2018-08-06T13:05:26.322Z,35.38
2018-08-06T13:07:55.209Z,35.20
2018-08-06T13:10:23.731Z,35.00
2018-08-06T13:12:52.100Z,35.02
2018-08-06T13:15:20.828Z,34.97
2018-08-06T13:17:49.512Z,34.94
2018-08-06T13:20:18.241Z,35.04
2018-08-06T13:22:46.444Z,35.26
2018-08-06T13:25:15.013Z,35.56
2018-08-06T13:27:43.320Z,35.72
2018-08-06T13:30:13.645Z,35.77
2018-08-06T13:32:42.194Z,35.75
2018-08-06T13:35:11.071Z,35.57
2018-08-06T13:37:39.674Z,35.49
2018-08-06T13:40:08.457Z,35.43
2018-08-06T13:42:36.661Z,35.29
2018-08-06T13:45:06.917Z,35.08
2018-08-06T13:47:35.706Z,34.88
2018-08-06T13:50:04.323Z,34.97
2018-08-06T13:52:32.844Z,35.13
2018-08-06T13:55:01.817Z,35.17
2018-08-06T13:57:29.920Z,35.17
2018-08-06T13:59:58.387Z,35.27
2018-08-06T14:02:26.826Z,35.35
2018-08-06T14:04:54.949Z,35.42
2018-08-06T14:07:23.976Z,35.37
2018-08-06T14:09:53.417Z,35.43
2018-08-06T14:12:21.790Z,35.36
2018-08-06T14:14:50.504Z,35.24
2018-08-06T14:17:19.229Z,35.32
2018-08-06T14:19:47.456Z,35.44
2018-08-06T14:22:15.610Z,35.57
2018-08-06T14:24:43.905Z,35.66
2018-08-06T14:27:12.836Z,35.76
2018-08-06T14:29:41.256Z,35.82
2018-08-06T14:32:10.216Z,35.98
2018-08-06T14:34:38.444Z,36.44
2018-08-06T14:37:06.597Z,36.89
2018-08-06T14:39:35.112Z,36.93
2018-08-06T14:42:03.570Z,36.70
2018-08-06T14:44:31.765Z,36.48
2018-08-06T14:47:13.465Z,36.21
2018-08-06T14:49:42.149Z,36.02
2018-08-06T14:52:10.677Z,36.02
2018-08-06T14:55:01.641Z,36.13
2018-08-06T14:57:34.003Z,36.13
2018-08-06T15:02:36.253Z,36.22
2018-08-06T15:05:04.608Z,36.01
2018-08-06T15:07:33.223Z,35.82
2018-08-06T15:12:41.973Z,36.10
2018-08-06T15:17:49.920Z,36.55
2018-08-06T15:20:19.173Z,36.62
2018-08-06T15:22:48.058Z,36.65
2018-08-06T15:25:18.195Z,36.41
2018-08-06T15:27:46.660Z,36.16
2018-08-06T15:30:17.018Z,36.01
2018-08-06T15:32:45.953Z,35.89
2018-08-06T15:35:14.892Z,35.96
2018-08-06T15:37:43.933Z,36.04
2018-08-06T15:40:14.468Z,36.01
2018-08-06T15:42:42.948Z,35.86
2018-08-06T15:45:11.992Z,35.75
2018-08-06T15:47:40.939Z,35.90
2018-08-06T15:50:14.953Z,35.99
2018-08-06T15:52:44.597Z,35.93
2018-08-06T15:55:13.041Z,35.75
2018-08-06T15:57:41.577Z,35.72
2018-08-06T16:03:03.411Z,36.16
2018-08-06T16:05:32.589Z,36.17
2018-08-06T16:08:01.143Z,35.94
2018-08-06T16:10:29.533Z,35.79
2018-08-06T16:12:57.908Z,35.70
2018-08-06T16:15:26.232Z,35.56
2018-08-06T16:17:54.442Z,35.40
2018-08-06T16:20:29.360Z,35.20
2018-08-06T16:22:58.108Z,34.96
2018-08-06T16:25:26.542Z,34.79
2018-08-06T16:27:55.149Z,34.72
2018-08-06T16:30:24.774Z,34.82
2018-08-06T16:32:52.954Z,34.99
2018-08-06T16:35:22.972Z,35.23
2018-08-06T16:37:52.780Z,35.31
2018-08-06T16:40:21.729Z,35.18
2018-08-06T16:42:50.445Z,35.15
2018-08-06T16:45:18.869Z,35.14
2018-08-06T16:48:01.010Z,35.12
2018-08-06T16:50:29.432Z,35.09
2018-08-06T16:52:57.837Z,34.99
2018-08-06T16:55:26.276Z,34.85
2018-08-06T16:57:54.620Z,34.72
2018-08-06T17:00:23.449Z,34.56
2018-08-06T17:02:52.361Z,34.51
2018-08-06T17:05:21.383Z,34.56
2018-08-06T17:07:50.556Z,34.55
2018-08-06T17:10:20.218Z,34.53
2018-08-06T17:12:49.962Z,34.56
2018-08-06T17:15:19.648Z,34.56
2018-08-06T17:17:48.740Z,34.54
2018-08-06T17:20:19.972Z,34.50
2018-08-06T17:22:49.313Z,34.37
2018-08-06T17:25:18.379Z,34.31
2018-08-06T17:27:47.336Z,34.22
2018-08-06T17:30:16.376Z,34.12
2018-08-06T17:32:44.504Z,34.04
2018-08-06T17:35:18.657Z,34.00
2018-08-06T17:37:47.281Z,33.99
2018-08-06T17:40:17.514Z,34.03
2018-08-06T17:42:45.876Z,34.04
2018-08-06T17:45:16.516Z,34.00
2018-08-06T17:47:45.217Z,33.98
2018-08-06T17:50:16.063Z,33.97
2018-08-06T17:52:45.383Z,33.95
2018-08-06T17:55:14.617Z,33.94
2018-08-06T17:57:43.044Z,33.89
2018-08-06T18:00:11.893Z,33.84
2018-08-06T18:02:47.159Z,33.74
2018-08-06T18:05:16.324Z,33.67
2018-08-06T18:07:45.250Z,33.61
2018-08-06T18:10:15.254Z,33.52
2018-08-06T18:12:44.452Z,33.48
2018-08-06T18:15:12.885Z,33.41
2018-08-06T18:17:41.240Z,33.36
2018-08-06T18:20:12.844Z,33.30
2018-08-06T18:22:41.016Z,33.23
2018-08-06T18:25:11.177Z,33.14
2018-08-06T18:27:39.352Z,33.08
2018-08-06T18:30:19.080Z,33.01
2018-08-06T18:32:47.551Z,32.86
2018-08-06T18:35:17.163Z,32.73
2018-08-06T18:37:45.939Z,32.61
2018-08-06T18:40:15.026Z,32.48
2018-08-06T18:42:44.385Z,32.37
2018-08-06T18:45:14.676Z,32.23
2018-08-06T18:47:43.893Z,32.10
2018-08-06T18:50:18.607Z,31.91
2018-08-06T18:52:47.921Z,31.76
2018-08-06T18:55:16.616Z,31.63
2018-08-06T18:57:45.094Z,31.50
2018-08-06T19:00:18.723Z,31.34
2018-08-06T19:02:47.512Z,31.19
2018-08-06T19:05:16.459Z,31.05
2018-08-06T19:07:45.306Z,30.89
2018-08-06T19:10:13.728Z,30.73
2018-08-06T19:12:47.386Z,30.56
2018-08-06T19:15:16.249Z,30.43
2018-08-06T19:17:50.129Z,30.30
2018-08-06T19:20:18.766Z,30.16
2018-08-06T19:22:47.480Z,30.03
2018-08-06T19:25:20.929Z,29.92
2018-08-06T19:27:50.557Z,29.80
2018-08-06T19:30:19.016Z,29.69
2018-08-06T19:32:47.785Z,29.60
2018-08-06T19:35:16.233Z,29.51
2018-08-06T19:37:45.068Z,29.40
2018-08-06T19:40:13.285Z,29.26
2018-08-06T19:42:47.588Z,29.16
2018-08-06T19:45:16.481Z,29.03
2018-08-06T19:47:45.572Z,28.89
2018-08-06T19:50:24.686Z,28.74
2018-08-06T19:52:53.501Z,28.57
2018-08-06T19:55:28.145Z,28.45
2018-08-06T19:57:56.294Z,28.35
2018-08-06T20:00:24.757Z,28.25
2018-08-06T20:02:52.875Z,28.13
2018-08-06T20:05:21.540Z,28.02
2018-08-06T20:07:50.072Z,27.92
2018-08-06T20:10:19.266Z,27.81
2018-08-06T20:12:47.536Z,27.70
2018-08-06T20:15:18.111Z,27.60
2018-08-06T20:17:47.067Z,27.54
2018-08-06T20:20:15.629Z,27.49
2018-08-06T20:22:44.156Z,27.42
2018-08-06T20:25:16.336Z,27.34
2018-08-06T20:27:45.217Z,27.27
2018-08-06T20:30:14.845Z,27.21
2018-08-06T20:32:42.936Z,27.13
2018-08-06T20:35:13.237Z,27.07
2018-08-06T20:37:41.842Z,27.02
2018-08-06T20:40:11.269Z,26.93
2018-08-06T20:42:40.530Z,26.84
2018-08-06T20:45:12.688Z,26.73
2018-08-06T20:47:41.410Z,26.63
2018-08-06T20:50:16.073Z,26.52
2018-08-06T20:52:45.203Z,26.41
2018-08-06T20:55:13.796Z,26.28
2018-08-06T20:57:43.011Z,26.24
2018-08-06T21:00:16.175Z,26.18
2018-08-06T21:02:45.180Z,26.12
2018-08-06T21:05:13.420Z,26.04
2018-08-06T21:07:41.813Z,25.97
2018-08-06T21:10:11.887Z,25.90
2018-08-06T21:12:40.718Z,25.83
2018-08-06T21:15:10.108Z,25.79
2018-08-06T21:17:38.728Z,25.73
2018-08-06T21:20:10.270Z,25.67
2018-08-06T21:22:38.828Z,25.57
2018-08-06T21:25:08.055Z,25.50
2018-08-06T21:27:36.516Z,25.44
2018-08-06T21:30:07.176Z,25.41
2018-08-06T21:32:35.633Z,25.37
2018-08-06T21:35:04.002Z,25.30
2018-08-06T21:37:32.726Z,25.21
2018-08-06T21:40:00.857Z,25.17
2018-08-06T21:42:29.456Z,25.10
2018-08-06T21:44:57.665Z,25.03
2018-08-06T21:47:26.822Z,24.97
2018-08-06T21:49:54.952Z,24.93
2018-08-06T21:52:23.729Z,24.89
2018-08-06T21:54:51.849Z,24.83
2018-08-06T21:57:20.912Z,24.79
2018-08-06T21:59:49.042Z,24.75
2018-08-06T22:02:17.403Z,24.68
2018-08-06T22:04:45.916Z,24.62
2018-08-06T22:07:14.849Z,24.53
2018-08-06T22:09:43.319Z,24.45
2018-08-06T22:12:11.799Z,24.39
2018-08-06T22:14:39.904Z,24.36
2018-08-06T22:17:08.024Z,24.35
2018-08-06T22:19:36.145Z,24.32
2018-08-06T22:22:04.549Z,24.32
2018-08-06T22:24:32.854Z,24.29
2018-08-06T22:27:01.537Z,24.27
2018-08-06T22:29:30.276Z,24.23
2018-08-06T22:31:58.664Z,24.16
2018-08-06T22:34:27.105Z,24.07
2018-08-06T22:36:55.519Z,23.98
2018-08-06T22:39:25.236Z,23.88
2018-08-06T22:41:53.905Z,23.86
2018-08-06T22:44:22.617Z,23.79
2018-08-06T22:46:51.072Z,23.75
2018-08-06T22:49:19.184Z,23.70
2018-08-06T22:51:47.741Z,23.67
2018-08-06T22:54:15.844Z,23.65
2018-08-06T22:56:44.309Z,23.61
2018-08-06T22:59:12.425Z,23.55
2018-08-06T23:01:40.622Z,23.49
2018-08-06T23:04:09.296Z,23.42
2018-08-06T23:06:37.657Z,23.35
2018-08-06T23:09:09.190Z,23.29
2018-08-06T23:11:38.116Z,23.24
2018-08-06T23:14:06.228Z,23.19
2018-08-06T23:16:34.369Z,23.14
2018-08-06T23:19:02.470Z,23.10
2018-08-06T23:21:31.099Z,23.09
2018-08-06T23:23:59.409Z,23.06
2018-08-06T23:26:28.596Z,23.07
2018-08-06T23:28:57.285Z,23.08
2018-08-06T23:31:25.429Z,23.08
2018-08-06T23:33:53.557Z,23.05
2018-08-06T23:36:21.693Z,23.00
2018-08-06T23:38:50.367Z,22.99
2018-08-06T23:41:19.611Z,22.93
2018-08-06T23:43:48.265Z,22.87
2018-08-06T23:46:16.380Z,22.82
2018-08-06T23:48:44.499Z,22.77
2018-08-06T23:51:12.956Z,22.75
2018-08-06T23:53:41.440Z,22.72
2018-08-06T23:56:09.561Z,22.68
2018-08-06T23:58:37.949Z,22.64
